createdAt,value
2023-09-23T00:02:26.141Z,1.27
2023-09-23T00:04:54.809Z,1.10
2023-09-23T00:07:29.887Z,1.08
2023-09-23T00:10:00.223Z,1.17
2023-09-23T00:12:38.549Z,1.10
2023-09-23T00:15:12.885Z,1.20
2023-09-23T00:17:46.834Z,1.20
2023-09-23T00:20:17.854Z,1.20
2023-09-23T00:22:48.600Z,1.23
2023-09-23T00:25:24.915Z,1.20
2023-09-23T00:27:55.844Z,1.02
2023-09-23T00:30:24.721Z,1.05
2023-09-23T00:32:55.884Z,1.20
2023-09-23T00:35:24.333Z,1.15
2023-09-23T00:37:52.670Z,1.15
2023-09-23T00:43:12.894Z,1.17
2023-09-23T00:45:47.192Z,1.27
2023-09-23T00:48:15.315Z,1.00
2023-09-23T00:50:44.604Z,1.02
2023-09-23T00:53:14.098Z,1.00
2023-09-23T00:55:54.065Z,0.90
2023-09-23T00:58:26.010Z,0.95
2023-09-23T01:00:55.961Z,1.10
2023-09-23T01:03:24.332Z,0.90
2023-09-23T01:06:06.283Z,0.80
2023-09-23T01:08:48.980Z,0.98
2023-09-23T01:11:20.765Z,0.90
2023-09-23T01:13:53.154Z,0.98
2023-09-23T01:16:25.477Z,0.93
2023-09-23T01:18:54.857Z,0.70
2023-09-23T01:21:32.912Z,1.00
2023-09-23T01:24:11.287Z,0.85
2023-09-23T01:26:44.418Z,0.98
2023-09-23T01:29:13.081Z,0.90
2023-09-23T01:31:44.025Z,1.10
2023-09-23T01:34:12.045Z,1.02
2023-09-23T01:36:40.094Z,0.90
2023-09-23T01:39:14.293Z,0.90
2023-09-23T01:41:42.477Z,1.00
2023-09-23T01:44:11.063Z,1.02
2023-09-23T01:46:44.061Z,0.70
2023-09-23T01:49:14.440Z,0.90
2023-09-23T01:51:45.742Z,0.95
2023-09-23T01:54:17.230Z,1.10
2023-09-23T01:56:45.487Z,1.00
2023-09-23T01:59:22.437Z,0.90
2023-09-23T02:01:56.129Z,1.05
2023-09-23T02:04:24.227Z,0.60
2023-09-23T02:06:52.853Z,0.90
2023-09-23T02:09:22.750Z,0.82
2023-09-23T02:11:51.019Z,0.82
2023-09-23T02:14:22.001Z,0.80
2023-09-23T02:16:51.916Z,1.00
2023-09-23T02:19:21.034Z,1.40
2023-09-23T02:21:52.909Z,0.98
2023-09-23T02:24:22.436Z,0.80
2023-09-23T02:26:50.511Z,1.10
2023-09-23T02:29:23.271Z,0.70
2023-09-23T02:31:52.110Z,0.90
2023-09-23T02:34:21.394Z,0.90
2023-09-23T02:36:51.887Z,0.77
2023-09-23T02:39:22.672Z,0.90
2023-09-23T02:41:54.323Z,0.67
2023-09-23T02:44:24.205Z,0.80
2023-09-23T02:46:54.363Z,0.70
2023-09-23T02:49:28.638Z,1.08
2023-09-23T02:51:56.631Z,0.95
2023-09-23T02:54:24.632Z,0.82
2023-09-23T02:56:53.981Z,0.93
2023-09-23T02:59:27.607Z,0.70
2023-09-23T03:01:58.553Z,1.03
2023-09-23T03:04:35.935Z,1.00
2023-09-23T03:07:16.871Z,0.75
2023-09-23T03:09:56.608Z,0.80
2023-09-23T03:12:30.538Z,0.83
2023-09-23T03:15:18.379Z,0.80
2023-09-23T03:17:51.943Z,1.02
2023-09-23T03:20:31.412Z,0.80
2023-09-23T03:23:00.066Z,0.77
2023-09-23T03:25:28.051Z,0.67
2023-09-23T03:28:00.504Z,0.70
2023-09-23T03:30:36.523Z,0.88
2023-09-23T03:33:07.125Z,0.63
2023-09-23T03:35:47.399Z,0.90
2023-09-23T03:38:18.263Z,0.60
2023-09-23T03:40:52.709Z,0.70
2023-09-23T03:43:25.633Z,0.80
2023-09-23T03:45:54.084Z,0.60
2023-09-23T03:48:24.648Z,1.00
2023-09-23T03:50:53.840Z,0.70
2023-09-23T03:53:30.075Z,0.73
2023-09-23T03:56:02.336Z,0.60
2023-09-23T03:58:47.024Z,0.70
2023-09-23T04:01:18.126Z,0.93
2023-09-23T04:03:46.144Z,0.60
2023-09-23T04:06:16.366Z,0.70
2023-09-23T04:08:47.986Z,0.60
2023-09-23T04:11:19.889Z,0.73
2023-09-23T04:13:52.268Z,0.70
2023-09-23T04:16:23.633Z,0.80
2023-09-23T04:18:52.928Z,1.10
2023-09-23T04:21:26.240Z,0.90
2023-09-23T04:23:54.513Z,0.60
2023-09-23T04:26:23.128Z,0.63
2023-09-23T04:28:53.769Z,0.63
2023-09-23T04:31:26.002Z,0.80
2023-09-23T04:33:54.693Z,0.60
2023-09-23T04:36:23.365Z,0.43
2023-09-23T04:38:51.374Z,0.77
2023-09-23T04:41:28.272Z,0.60
2023-09-23T04:43:58.549Z,0.50
2023-09-23T04:46:34.847Z,0.77
2023-09-23T04:49:17.560Z,0.70
2023-09-23T04:51:52.122Z,0.90
2023-09-23T04:54:23.624Z,0.70
2023-09-23T04:56:51.653Z,0.50
2023-09-23T04:59:24.156Z,0.63
2023-09-23T05:01:52.256Z,0.60
2023-09-23T05:04:20.425Z,0.80
2023-09-23T05:06:48.462Z,0.43
2023-09-23T05:09:19.608Z,0.80
2023-09-23T05:11:52.650Z,0.87
2023-09-23T05:14:28.258Z,0.60
2023-09-23T05:17:00.933Z,0.90
2023-09-23T05:19:35.058Z,1.00
2023-09-23T05:22:12.122Z,0.60
2023-09-23T05:24:48.524Z,0.80
2023-09-23T05:27:16.775Z,0.50
2023-09-23T05:29:46.717Z,0.60
2023-09-23T05:32:14.776Z,0.67
2023-09-23T05:34:43.730Z,0.77
2023-09-23T05:37:13.054Z,0.60
2023-09-23T05:39:46.035Z,0.73
2023-09-23T05:42:17.063Z,0.60
2023-09-23T05:44:49.184Z,0.60
2023-09-23T05:47:17.238Z,0.60
2023-09-23T05:49:47.782Z,0.80
2023-09-23T05:52:16.230Z,0.77
2023-09-23T05:54:44.328Z,0.70
2023-09-23T05:57:12.293Z,1.00
2023-09-23T05:59:40.324Z,0.80
2023-09-23T06:02:10.018Z,0.90
2023-09-23T06:04:38.177Z,0.80
2023-09-23T06:07:06.331Z,0.70
2023-09-23T06:09:34.610Z,0.70
2023-09-23T06:12:02.721Z,0.57
2023-09-23T06:14:31.280Z,0.70
2023-09-23T06:16:59.331Z,0.70
2023-09-23T06:19:28.792Z,1.90
2023-09-23T06:21:56.922Z,0.70
2023-09-23T06:24:25.001Z,0.60
2023-09-23T06:26:52.994Z,0.50
2023-09-23T06:29:21.664Z,0.90
2023-09-23T06:31:53.228Z,0.90
2023-09-23T06:34:21.720Z,0.70
2023-09-23T06:36:51.078Z,0.63
2023-09-23T06:39:19.076Z,0.40
2023-09-23T06:41:47.865Z,0.80
2023-09-23T06:44:16.011Z,0.60
2023-09-23T06:46:44.214Z,0.80
2023-09-23T06:49:12.261Z,0.80
2023-09-23T06:51:40.341Z,0.80
2023-09-23T06:54:12.155Z,0.57
2023-09-23T06:56:40.814Z,0.80
2023-09-23T06:59:09.106Z,0.57
2023-09-23T07:01:37.808Z,0.60
2023-09-23T07:04:07.312Z,0.80
2023-09-23T07:06:35.570Z,0.67
2023-09-23T07:09:06.810Z,0.55
2023-09-23T07:11:36.207Z,0.60
2023-09-23T07:14:07.207Z,0.70
2023-09-23T07:16:35.742Z,0.73
2023-09-23T07:19:04.361Z,0.60
2023-09-23T07:21:38.243Z,0.47
2023-09-23T07:26:29.791Z,0.87
2023-09-23T07:28:58.674Z,0.87
2023-09-23T07:31:27.055Z,0.63
2023-09-23T07:33:55.524Z,0.60
2023-09-23T07:36:23.608Z,0.50
2023-09-23T07:38:51.701Z,0.70
2023-09-23T07:41:19.876Z,0.90
2023-09-23T07:43:50.663Z,0.50
2023-09-23T07:46:18.956Z,0.40
2023-09-23T07:48:47.429Z,0.60
2023-09-23T07:51:15.512Z,0.50
2023-09-23T07:53:43.554Z,0.50
2023-09-23T07:56:11.878Z,0.52
2023-09-23T07:58:40.180Z,0.50
2023-09-23T08:01:09.916Z,0.60
2023-09-23T08:03:38.317Z,0.50
2023-09-23T08:06:06.730Z,0.50
2023-09-23T08:08:35.114Z,0.70
2023-09-23T08:11:04.217Z,1.08
2023-09-23T08:13:32.368Z,0.63
2023-09-23T08:16:00.866Z,0.80
2023-09-23T08:18:31.055Z,0.60
2023-09-23T08:21:00.483Z,0.70
2023-09-23T08:23:29.284Z,0.63
2023-09-23T08:25:57.996Z,0.65
2023-09-23T08:28:26.165Z,0.75
2023-09-23T08:30:55.084Z,0.50
2023-09-23T08:33:23.502Z,0.50
2023-09-23T08:35:53.071Z,0.50
2023-09-23T08:38:21.673Z,0.60
2023-09-23T08:40:50.262Z,0.50
2023-09-23T08:43:25.139Z,0.60
2023-09-23T08:45:55.746Z,0.73
2023-09-23T08:48:24.406Z,0.75
2023-09-23T08:50:54.949Z,0.70
2023-09-23T08:53:24.746Z,0.60
2023-09-23T08:55:55.001Z,0.70
2023-09-23T08:58:23.474Z,0.80
2023-09-23T09:00:53.706Z,0.75
2023-09-23T09:03:22.589Z,0.57
2023-09-23T09:05:51.097Z,0.60
2023-09-23T09:08:21.008Z,0.60
2023-09-23T09:10:49.319Z,0.70
2023-09-23T09:13:18.665Z,0.50
2023-09-23T09:15:46.892Z,1.52
2023-09-23T09:18:15.132Z,2.15
2023-09-23T09:20:43.446Z,1.95
2023-09-23T09:23:14.867Z,3.47
2023-09-23T09:25:50.641Z,1.60
2023-09-23T09:28:21.066Z,1.17
2023-09-23T09:30:56.617Z,1.40
2023-09-23T09:33:28.350Z,0.73
2023-09-23T09:35:57.784Z,1.08
2023-09-23T09:38:27.215Z,1.17
2023-09-23T09:41:04.319Z,0.50
2023-09-23T09:43:34.678Z,0.82
2023-09-23T09:46:10.049Z,0.68
2023-09-23T09:48:42.639Z,1.08
2023-09-23T09:51:14.907Z,0.60
2023-09-23T09:53:43.970Z,0.50
2023-09-23T09:56:14.403Z,0.70
2023-09-23T09:58:43.990Z,0.75
2023-09-23T10:01:14.364Z,0.50
2023-09-23T10:03:44.161Z,0.80
2023-09-23T10:06:21.113Z,0.70
2023-09-23T10:08:50.429Z,0.93
2023-09-23T10:11:30.982Z,0.70
2023-09-23T10:13:59.369Z,0.77
2023-09-23T10:16:30.245Z,0.70
2023-09-23T10:19:00.124Z,0.52
2023-09-23T10:21:30.249Z,0.65
2023-09-23T10:24:04.396Z,0.90
2023-09-23T10:26:34.122Z,0.40
2023-09-23T10:29:04.964Z,0.90
2023-09-23T10:31:34.570Z,0.70
2023-09-23T10:34:06.757Z,0.68
2023-09-23T10:36:37.591Z,0.70
2023-09-23T10:39:07.360Z,1.00
2023-09-23T10:41:37.568Z,1.25
2023-09-23T10:44:06.154Z,1.10
2023-09-23T10:46:34.472Z,0.85
2023-09-23T10:49:04.754Z,0.50
2023-09-23T10:51:34.476Z,0.38
2023-09-23T10:54:02.699Z,0.70
2023-09-23T10:56:31.916Z,0.50
2023-09-23T10:59:01.810Z,0.45
2023-09-23T11:01:30.684Z,0.70
2023-09-23T11:03:59.550Z,0.65
2023-09-23T11:06:27.750Z,0.60
2023-09-23T11:08:56.590Z,0.50
2023-09-23T11:11:24.744Z,0.47
2023-09-23T11:13:52.988Z,0.73
2023-09-23T11:16:24.243Z,0.68
2023-09-23T11:18:53.476Z,0.50
2023-09-23T11:21:21.907Z,0.70
2023-09-23T11:23:58.658Z,0.77
2023-09-23T11:26:26.758Z,0.80
2023-09-23T11:28:54.881Z,0.60
2023-09-23T11:31:25.529Z,0.82
2023-09-23T11:33:53.789Z,0.90
2023-09-23T11:36:21.846Z,0.85
2023-09-23T11:38:50.833Z,0.70
2023-09-23T11:41:19.430Z,0.57
2023-09-23T11:43:51.454Z,1.20
2023-09-23T11:46:20.977Z,1.13
2023-09-23T11:48:50.540Z,0.75
2023-09-23T11:51:20.049Z,0.80
2023-09-23T11:53:48.053Z,0.88
2023-09-23T11:56:16.709Z,0.70
2023-09-23T11:58:54.621Z,0.60
2023-09-23T12:01:32.917Z,0.75
2023-09-23T12:04:02.445Z,0.63
2023-09-23T12:06:30.801Z,0.70
2023-09-23T12:08:58.797Z,1.13
2023-09-23T12:11:27.785Z,0.68
2023-09-23T12:13:55.807Z,0.80
2023-09-23T12:16:24.171Z,0.50
2023-09-23T12:18:52.548Z,0.40
2023-09-23T12:21:22.221Z,0.50
2023-09-23T12:23:50.755Z,0.90
2023-09-23T12:26:19.950Z,0.65
2023-09-23T12:28:48.109Z,0.70
2023-09-23T12:31:16.253Z,0.82
2023-09-23T12:33:44.214Z,1.00
2023-09-23T12:36:13.042Z,0.82
2023-09-23T12:38:42.471Z,0.73
2023-09-23T12:41:10.605Z,0.80
2023-09-23T12:43:38.632Z,0.80
2023-09-23T12:46:06.706Z,0.57
2023-09-23T12:48:34.768Z,0.85
2023-09-23T12:51:02.812Z,0.55
2023-09-23T12:53:31.281Z,0.70
2023-09-23T12:56:00.748Z,0.70
2023-09-23T12:58:28.855Z,0.60
2023-09-23T13:00:56.923Z,0.60
2023-09-23T13:03:25.159Z,0.77
2023-09-23T13:05:53.296Z,0.60
2023-09-23T13:08:22.058Z,0.60
2023-09-23T13:10:50.193Z,0.70
2023-09-23T13:13:19.572Z,0.50
2023-09-23T13:15:47.669Z,0.43
2023-09-23T13:18:17.608Z,0.70
2023-09-23T13:20:45.854Z,1.05
2023-09-23T13:23:14.158Z,0.70
2023-09-23T13:25:42.239Z,0.52
2023-09-23T13:28:10.357Z,0.60
2023-09-23T13:30:39.852Z,0.82
2023-09-23T13:33:10.116Z,0.65
2023-09-23T13:35:38.560Z,0.70
2023-09-23T13:38:08.031Z,0.68
2023-09-23T13:40:36.698Z,0.70
2023-09-23T13:43:04.974Z,0.60
2023-09-23T13:45:33.444Z,0.47
2023-09-23T13:48:03.787Z,0.40
2023-09-23T13:50:31.895Z,0.43
2023-09-23T13:53:00.039Z,0.43
2023-09-23T13:55:28.645Z,0.80
2023-09-23T13:57:56.700Z,1.10
2023-09-23T14:00:25.127Z,0.40
2023-09-23T14:02:53.553Z,0.70
2023-09-23T14:05:22.985Z,0.65
2023-09-23T14:07:51.047Z,0.45
2023-09-23T14:10:22.329Z,0.52
2023-09-23T14:12:50.818Z,0.93
2023-09-23T14:15:19.189Z,0.52
2023-09-23T14:17:48.866Z,0.50
2023-09-23T14:20:48.912Z,0.63
2023-09-23T14:23:16.995Z,0.57
2023-09-23T14:25:45.219Z,0.60
2023-09-23T14:28:13.387Z,0.75
2023-09-23T14:30:41.499Z,1.00
2023-09-23T14:33:09.847Z,0.47
2023-09-23T14:35:37.858Z,0.52
2023-09-23T14:38:07.455Z,0.80
2023-09-23T14:40:35.779Z,0.70
2023-09-23T14:43:03.839Z,0.45
2023-09-23T14:45:31.902Z,0.70
2023-09-23T14:48:36.906Z,0.55
2023-09-23T14:51:05.036Z,0.73
2023-09-23T14:53:34.624Z,0.50
2023-09-23T14:56:02.662Z,0.65
2023-09-23T14:58:30.972Z,1.00
2023-09-23T15:00:59.225Z,0.40
2023-09-23T15:03:27.658Z,0.70
2023-09-23T15:05:55.905Z,0.60
2023-09-23T15:08:24.132Z,0.60
2023-09-23T15:10:53.632Z,0.70
2023-09-23T15:13:21.617Z,0.45
2023-09-23T15:15:49.686Z,0.70
2023-09-23T15:18:18.753Z,0.50
2023-09-23T15:20:46.918Z,0.63
2023-09-23T15:23:15.143Z,0.65
2023-09-23T15:25:43.251Z,0.50
2023-09-23T15:28:13.132Z,0.60
2023-09-23T15:30:43.352Z,1.27
2023-09-23T15:33:12.077Z,0.85
2023-09-23T15:35:40.346Z,0.50
2023-09-23T15:38:08.517Z,1.00
2023-09-23T15:40:36.610Z,0.80
2023-09-23T15:43:04.666Z,1.00
2023-09-23T15:45:34.681Z,1.02
2023-09-23T15:48:03.488Z,0.80
2023-09-23T15:50:31.693Z,0.70
2023-09-23T15:52:59.772Z,0.88
2023-09-23T15:55:27.846Z,0.93
2023-09-23T15:57:57.346Z,1.00
2023-09-23T16:00:25.712Z,0.80
2023-09-23T16:02:56.767Z,1.13
2023-09-23T16:05:26.414Z,1.10
2023-09-23T16:07:54.836Z,1.02
2023-09-23T16:10:22.906Z,0.60
2023-09-23T16:12:50.953Z,0.65
2023-09-23T16:15:19.244Z,0.80
2023-09-23T16:17:47.473Z,0.77
2023-09-23T16:20:17.044Z,1.23
2023-09-23T16:22:45.459Z,0.85
2023-09-23T16:25:13.515Z,1.05
2023-09-23T16:27:42.998Z,0.88
2023-09-23T16:30:12.189Z,0.80
2023-09-23T16:32:40.543Z,0.75
2023-09-23T16:35:11.069Z,0.90
2023-09-23T16:37:41.908Z,1.10
2023-09-23T16:40:11.326Z,1.60
2023-09-23T16:42:39.605Z,1.10
2023-09-23T16:45:08.540Z,1.50
2023-09-23T16:47:36.680Z,1.33
2023-09-23T16:50:05.172Z,1.52
2023-09-23T16:52:33.166Z,1.40
2023-09-23T16:55:03.174Z,1.20
2023-09-23T16:57:31.257Z,1.10
2023-09-23T16:59:59.578Z,0.90
2023-09-23T17:02:27.634Z,0.75
2023-09-23T17:04:55.740Z,0.90
2023-09-23T17:07:24.041Z,0.88
2023-09-23T17:09:52.210Z,0.80
2023-09-23T17:12:21.599Z,0.90
2023-09-23T17:14:49.853Z,0.90
2023-09-23T17:17:17.872Z,0.80
2023-09-23T17:19:46.526Z,0.70
2023-09-23T17:22:14.558Z,1.20
2023-09-23T17:24:42.626Z,1.30
2023-09-23T17:27:10.620Z,1.13
2023-09-23T17:29:40.033Z,0.85
2023-09-23T17:32:08.311Z,1.05
2023-09-23T17:34:36.463Z,1.17
2023-09-23T17:37:04.706Z,0.82
2023-09-23T17:39:34.023Z,1.10
2023-09-23T17:42:02.124Z,0.90
2023-09-23T17:44:30.214Z,0.80
2023-09-23T17:47:02.672Z,0.80
2023-09-23T17:49:33.118Z,0.75
2023-09-23T17:52:01.126Z,0.95
2023-09-23T17:54:32.276Z,0.80
2023-09-23T17:57:00.280Z,0.80
2023-09-23T17:59:30.506Z,1.00
2023-09-23T18:02:02.796Z,0.80
2023-09-23T18:04:34.081Z,0.70
2023-09-23T18:07:05.492Z,0.80
2023-09-23T18:09:41.501Z,1.02
2023-09-23T18:12:11.735Z,1.27
2023-09-23T18:14:39.811Z,1.10
2023-09-23T18:17:16.096Z,1.40
2023-09-23T18:19:45.422Z,1.20
2023-09-23T18:22:13.636Z,1.00
2023-09-23T18:24:47.876Z,1.30
2023-09-23T18:27:21.198Z,1.10
2023-09-23T18:29:55.102Z,1.05
2023-09-23T18:32:27.609Z,1.02
2023-09-23T18:34:56.132Z,1.00
2023-09-23T18:37:36.335Z,0.90
2023-09-23T18:40:04.600Z,1.27
2023-09-23T18:42:35.679Z,1.17
2023-09-23T18:45:03.802Z,0.85
2023-09-23T18:47:39.424Z,1.10
2023-09-23T18:50:10.769Z,1.20
2023-09-23T18:52:38.890Z,1.60
2023-09-23T18:55:11.598Z,1.13
2023-09-23T18:57:52.210Z,1.52
2023-09-23T19:00:26.514Z,0.95
2023-09-23T19:02:56.040Z,1.20
2023-09-23T19:05:27.239Z,1.10
2023-09-23T19:07:58.903Z,1.38
2023-09-23T19:10:27.493Z,1.40
2023-09-23T19:12:58.594Z,1.10
2023-09-23T19:15:26.705Z,1.27
2023-09-23T19:18:02.928Z,1.10
2023-09-23T19:20:34.096Z,1.08
2023-09-23T19:23:02.170Z,1.30
2023-09-23T19:25:33.165Z,1.10
2023-09-23T19:28:05.104Z,1.20
2023-09-23T19:30:36.108Z,1.08
2023-09-23T19:33:17.976Z,0.90
2023-09-23T19:35:49.861Z,1.30
2023-09-23T19:38:18.000Z,0.90
2023-09-23T19:40:46.098Z,1.17
2023-09-23T19:43:14.206Z,0.88
2023-09-23T19:45:42.271Z,0.80
2023-09-23T19:48:10.607Z,1.10
2023-09-23T19:50:41.592Z,0.90
2023-09-23T19:53:09.930Z,1.00
2023-09-23T19:55:38.058Z,0.93
2023-09-23T19:58:12.519Z,1.00
2023-09-23T20:00:52.763Z,1.20
2023-09-23T20:03:27.038Z,1.30
2023-09-23T20:06:05.518Z,1.75
2023-09-23T20:08:39.916Z,0.93
2023-09-23T20:11:10.412Z,1.10
2023-09-23T20:13:46.766Z,1.30
2023-09-23T20:16:15.043Z,0.77
2023-09-23T20:18:45.972Z,1.17
2023-09-23T20:21:16.160Z,1.05
2023-09-23T20:23:44.372Z,1.20
2023-09-23T20:26:14.050Z,0.98
2023-09-23T20:28:42.081Z,0.90
2023-09-23T20:31:10.343Z,1.10
2023-09-23T20:33:45.008Z,1.40
2023-09-23T20:36:14.354Z,1.42
2023-09-23T20:38:43.880Z,1.10
2023-09-23T20:41:12.019Z,1.40
2023-09-23T20:43:40.465Z,1.30
2023-09-23T20:46:12.358Z,1.80
2023-09-23T20:48:40.589Z,1.45
2023-09-23T20:51:10.360Z,1.40
2023-09-23T20:53:39.477Z,1.20
2023-09-23T20:56:09.890Z,1.40
2023-09-23T20:58:38.187Z,1.40
2023-09-23T21:01:06.222Z,1.33
2023-09-23T21:03:34.694Z,1.00
2023-09-23T21:06:04.513Z,1.63
2023-09-23T21:08:32.665Z,1.23
2023-09-23T21:11:00.736Z,1.05
2023-09-23T21:13:36.039Z,0.97
2023-09-23T21:16:05.225Z,1.20
2023-09-23T21:18:40.409Z,1.17
2023-09-23T21:21:11.516Z,1.03
2023-09-23T21:23:41.925Z,1.10
2023-09-23T21:26:19.349Z,1.10
2023-09-23T21:28:51.629Z,0.97
2023-09-23T21:31:19.708Z,1.05
2023-09-23T21:33:53.544Z,1.10
2023-09-23T21:36:24.202Z,1.05
2023-09-23T21:38:55.498Z,0.90
2023-09-23T21:41:26.408Z,1.03
2023-09-23T21:44:01.054Z,1.10
2023-09-23T21:46:38.369Z,0.83
2023-09-23T21:49:06.435Z,1.10
2023-09-23T21:51:57.017Z,0.90
2023-09-23T21:54:25.421Z,0.90
2023-09-23T21:56:53.462Z,0.90
2023-09-23T21:59:36.269Z,1.20
2023-09-23T22:02:10.875Z,1.80
2023-09-23T22:04:41.006Z,1.10
2023-09-23T22:07:11.828Z,1.10
2023-09-23T22:09:42.686Z,0.90
2023-09-23T22:12:14.475Z,1.10
2023-09-23T22:14:46.168Z,1.10
2023-09-23T22:17:26.712Z,0.90
2023-09-23T22:19:55.895Z,1.63
2023-09-23T22:22:40.294Z,1.10
2023-09-23T22:25:20.382Z,1.00
2023-09-23T22:27:52.918Z,1.10
2023-09-23T22:30:26.160Z,1.03
2023-09-23T22:32:58.156Z,0.90
2023-09-23T22:35:33.429Z,1.20
2023-09-23T22:38:07.906Z,0.80
2023-09-23T22:40:38.995Z,1.10
2023-09-23T22:43:31.283Z,0.97
2023-09-23T22:46:01.162Z,0.87
2023-09-23T22:48:30.178Z,1.03
2023-09-23T22:51:02.895Z,1.00
2023-09-23T22:53:31.033Z,0.90
2023-09-23T22:55:59.975Z,1.10
2023-09-23T22:58:36.541Z,1.20
2023-09-23T23:01:07.182Z,1.20
2023-09-23T23:03:35.232Z,1.10
2023-09-23T23:06:07.797Z,1.10
2023-09-23T23:08:36.544Z,1.40
2023-09-23T23:11:11.492Z,1.17
2023-09-23T23:13:42.365Z,0.90
2023-09-23T23:16:14.355Z,1.13
2023-09-23T23:18:48.560Z,0.90
2023-09-23T23:21:16.570Z,1.10
2023-09-23T23:23:44.652Z,1.23
2023-09-23T23:26:12.776Z,1.90
2023-09-23T23:28:43.607Z,1.20
2023-09-23T23:31:28.626Z,1.10
2023-09-23T23:33:59.609Z,0.90
2023-09-23T23:36:33.624Z,0.80
2023-09-23T23:39:08.719Z,1.20
2023-09-23T23:41:36.744Z,1.53
2023-09-23T23:44:10.882Z,1.13
2023-09-23T23:46:46.224Z,1.00
2023-09-23T23:49:15.027Z,0.97
2023-09-23T23:51:46.386Z,0.90
2023-09-23T23:54:14.410Z,1.00
2023-09-23T23:56:42.385Z,1.03
2023-09-23T23:59:16.912Z,1.20
